This is the latest recevied weather packets stored in our database for station/object TA3HRJ-12. If no packets are shown the sender has not sent any weather packets the latest 10 day(s).
| Time | Temp. | Humidity | Pressure | Rain* | Wind** | Luminosity | Snow |
|---|---|---|---|---|---|---|---|
| 1777634674 | 20.56° C | 33% | 1024.5 hPa | - | - | - | - |
| 1777633774 | 21.11° C | 33% | 1024.6 hPa | - | - | - | - |
| 1777632874 | 21.67° C | 32% | 1024.1 hPa | - | - | - | - |
| 1777631973 | 22.22° C | 31% | 1024.5 hPa | - | - | - | - |
| 1777631073 | 21.11° C | 33% | 1024.6 hPa | - | - | - | - |
| 1777630173 | 22.78° C | 30% | 1024.5 hPa | - | - | - | - |
| 1777629273 | 23.89° C | 26% | 1024.4 hPa | - | - | - | - |
| 1777628373 | 23.33° C | 27% | 1024.3 hPa | - | - | - | - |
| 1777627473 | 23.33° C | 25% | 1024.3 hPa | - | - | - | - |
| 1777626572 | 23.33° C | 25% | 1024.3 hPa | - | - | - | - |
| 1777625672 | 23.33° C | 25% | 1024.5 hPa | - | - | - | - |
| 1777624772 | 23.33° C | 26% | 1024.5 hPa | - | - | - | - |
| 1777623871 | 23.33° C | 26% | 1024.6 hPa | - | - | - | - |
| 1777622971 | 23.33° C | 27% | 1024.7 hPa | - | - | - | - |
| 1777622071 | 25° C | 25% | 1024.7 hPa | - | - | - | - |
| 1777621171 | 24.44° C | 26% | 1024.6 hPa | - | - | - | - |
| 1777620271 | 23.89° C | 27% | 1024.4 hPa | - | - | - | - |
| 1777619371 | 23.33° C | 28% | 1024.2 hPa | - | - | - | - |
| 1777618471 | 23.33° C | 28% | 1024.3 hPa | - | - | - | - |
| 1777617571 | 23.89° C | 27% | 1024 hPa | - | - | - | - |
| 1777616671 | 23.33° C | 27% | 1024 hPa | - | - | - | - |
| 1777615770 | 23.89° C | 26% | 1023.9 hPa | - | - | - | - |
| 1777614870 | 23.33° C | 27% | 1023.8 hPa | - | - | - | - |
| 1777613970 | 25° C | 23% | 1023.8 hPa | - | - | - | - |
| 1777613070 | 26.67° C | 23% | 1023.6 hPa | - | - | - | - |
* Rain since midnight (hover to see other rain measurements)
** Current wind speed in m/s (hover to see current wind gust speed)